Flight Track Log - Related Links

Times and Time Zones

All times are in EDT time to prevent confusion due to time zone crossing. See the APC20 flight status page for this flight to view local times or setup timezone preferences in your user account.

Time Position Orientation Groundspeed Altitude Reporting Facility
EDT Latitude Longitude Course Direction KTS MPH feet Rate Location/Type
Mon 10:23:51 PM 45.5811 -122.6300 346° North 101 116 600  Level Seattle Center
Mon 10:25:10 PM 45.6203 -122.6440 355° North 127 146 1,900 822 Climbing Seattle Center
Mon 10:26:17 PM 45.6639 -122.6490 358° North 149 171 2,600 803 Climbing Seattle Center
Mon 10:27:17 PM 45.7056 -122.6510 North 151 174 3,600 1,041 Climbing Seattle Center
Mon 10:28:18 PM 45.7514 -122.6470 23° Northeast 151 174 4,700 1,031 Climbing Seattle Center
Mon 10:29:25 PM 45.7917 -122.6220 24° Northeast 156 180 5,800 844 Climbing Seattle Center
Mon 10:30:26 PM 45.8342 -122.5950 25° Northeast 156 180 6,500 295 Climbing Seattle Center
Mon 10:31:27 PM 45.8764 -122.5670 12° North 176 203 6,400  Descending Seattle Center
Mon 10:32:28 PM 45.9247 -122.5520 North 166 191 6,500 60 Climbing Seattle Center
Mon 10:33:07 PM 45.9581 -122.5500 357° North 176 203 6,500  Level Seattle Center
Mon 10:33:28 PM 45.9706 -122.5510 354° North 167 192 6,500  Level Seattle Center
Mon 10:34:07 PM 45.9953 -122.5550 357° North 186 214 6,500  Level Seattle Center
Mon 10:35:07 PM 46.0411 -122.5580 358° North 181 208 6,500  Level Seattle Center
Mon 10:36:07 PM 46.0869 -122.5600 North 171 197 6,500  Level Seattle Center
Mon 10:37:07 PM 46.1328 -122.5590 356° North 161 185 6,500 -50 Level Seattle Center
Mon 10:38:07 PM 46.1786 -122.5640 North 161 185 6,400  Descending Seattle Center
Mon 10:39:07 PM 46.2267 -122.5540 360° North 167 192 6,500 50 Climbing Seattle Center
Mon 10:40:07 PM 46.2744 -122.5540 North 167 192 6,500  Level Seattle Center
Mon 10:41:07 PM 46.3225 -122.5470 360° North 172 198 6,500  Level Seattle Center
Mon 10:42:07 PM 46.3706 -122.5470 North 172 198 6,500  Level Seattle Center
Mon 10:43:07 PM 46.4183 -122.5460 North 172 198 6,500  Level Seattle Center
Mon 10:44:07 PM 46.4686 -122.5430 North 172 198 6,500 50 Level Seattle Center
Mon 10:45:07 PM 46.5167 -122.5360 10° North 178 205 6,600 50 Climbing Seattle Center
Mon 10:46:07 PM 46.5669 -122.5230 North 178 205 6,600 59 Level Seattle Center
Mon 10:46:48 PM 46.6025 -122.5160 North 181 208 6,700  Climbing Seattle Center
Mon 10:47:07 PM 46.6169 -122.5140 North 178 205 6,600  Descending Seattle Center
Mon 10:48:07 PM 46.6672 -122.5040 16° North 178 205 6,700  Climbing Seattle Center
Mon 10:49:07 PM 46.7136 -122.4850 18° North 178 205 6,600 -150 Descending Seattle Center
Mon 10:50:07 PM 46.7597 -122.4630 32° Northeast 178 205 6,400 -450 Descending Seattle Center
Mon 10:51:07 PM 46.8108 -122.4170 30° Northeast 183 211 5,700 -600 Descending Seattle Center
Mon 10:52:07 PM 46.8575 -122.3770 32° Northeast 183 211 5,200 -432 Descending Seattle Center
Mon 10:53:12 PM 46.9022 -122.3360 33° Northeast 192 221 4,800 -550 Descending Seattle Center
Mon 10:54:07 PM 46.9447 -122.2960 35° Northeast 189 217 4,100 -567 Descending Seattle Center
Mon 10:55:19 PM 46.9958 -122.2430 30° Northeast 185 213 3,600 -400 Descending Seattle Center
Mon 10:56:07 PM 47.0297 -122.2140 20° North 184 212 3,300 -111 Descending Seattle Center
Mon 10:57:07 PM 47.0717 -122.1920 18° North 171 197 3,400 -200 Climbing Seattle Center
Mon 10:58:07 PM 47.1200 -122.1690 North 171 197 2,900 -450 Descending Seattle Center
Mon 10:59:07 PM 47.1703 -122.1590 358° North 171 197 2,500 -200 Descending Seattle Center
Mon 11:00:07 PM 47.2181 -122.1620 359° North 171 197 2,500 -50 Level Seattle Center
Mon 11:01:07 PM 47.2597 -122.1630 355° North 171 197 2,400  Descending Seattle Center
Mon 11:02:07 PM 47.3075 -122.1690 348° North 166 191 2,500 -100 Climbing Seattle Center
Mon 11:03:07 PM 47.3528 -122.1830 349° North 166 191 2,200 -236 Descending Seattle Center
Mon 11:04:14 PM 47.4025 -122.1970 335° Northwest 158 182 2,000 -300 Descending Seattle Center
Mon 11:05:07 PM 47.4353 -122.2200 327° Northwest 156 180 1,600 -443 Descending Seattle Center
Mon 11:06:16 PM 47.4761 -122.2590 328° Northwest 140 161 1,100 -462 Descending Seattle Center
Mon 11:07:17 PM 47.5047 -122.2850 328° Northwest 105 121 600 -492 Descending Seattle Center

Login

Don't have an account? Register now (free) for customized features, flight alerts, and more!